sensor_id;sensor_type;location;lat;lon;timestamp;P1;durP1;ratioP1;P2;durP2;ratioP2
66972;SDS011;53902;51.466;-2.586;2023-03-23T00:02:24;12.70;;;1.40;;
66972;SDS011;53902;51.466;-2.586;2023-03-23T00:04:51;7.72;;;1.42;;
66972;SDS011;53902;51.466;-2.586;2023-03-23T00:07:18;9.65;;;1.52;;
66972;SDS011;53902;51.466;-2.586;2023-03-23T00:09:50;15.25;;;2.08;;
66972;SDS011;53902;51.466;-2.586;2023-03-23T00:12:20;11.65;;;1.50;;
66972;SDS011;53902;51.466;-2.586;2023-03-23T00:14:58;13.68;;;1.70;;
66972;SDS011;53902;51.466;-2.586;2023-03-23T00:17:33;19.88;;;2.92;;
66972;SDS011;53902;51.466;-2.586;2023-03-23T00:20:02;15.73;;;1.70;;
66972;SDS011;53902;51.466;-2.586;2023-03-23T00:22:30;16.88;;;2.28;;
66972;SDS011;53902;51.466;-2.586;2023-03-23T00:24:56;22.30;;;2.22;;
66972;SDS011;53902;51.466;-2.586;2023-03-23T00:27:22;13.73;;;1.90;;
66972;SDS011;53902;51.466;-2.586;2023-03-23T00:29:51;18.35;;;1.98;;
66972;SDS011;53902;51.466;-2.586;2023-03-23T00:32:20;18.13;;;2.10;;
66972;SDS011;53902;51.466;-2.586;2023-03-23T00:35:04;19.20;;;1.92;;
66972;SDS011;53902;51.466;-2.586;2023-03-23T00:37:31;21.70;;;2.30;;
66972;SDS011;53902;51.466;-2.586;2023-03-23T00:39:59;12.85;;;1.92;;
66972;SDS011;53902;51.466;-2.586;2023-03-23T00:42:31;14.50;;;1.77;;
66972;SDS011;53902;51.466;-2.586;2023-03-23T00:45:08;16.35;;;2.03;;
66972;SDS011;53902;51.466;-2.586;2023-03-23T00:47:46;19.55;;;2.33;;
66972;SDS011;53902;51.466;-2.586;2023-03-23T00:53:25;17.67;;;2.47;;
66972;SDS011;53902;51.466;-2.586;2023-03-23T00:56:19;26.02;;;3.03;;
66972;SDS011;53902;51.466;-2.586;2023-03-23T00:59:00;15.40;;;2.35;;
66972;SDS011;53902;51.466;-2.586;2023-03-23T04:09:36;13.50;;;1.65;;
66972;SDS011;53902;51.466;-2.586;2023-03-23T04:12:32;10.10;;;1.35;;
66972;SDS011;53902;51.466;-2.586;2023-03-23T04:15:31;13.57;;;2.10;;
66972;SDS011;53902;51.466;-2.586;2023-03-23T04:18:38;12.25;;;1.95;;
66972;SDS011;53902;51.466;-2.586;2023-03-23T04:21:26;18.52;;;2.17;;
66972;SDS011;53902;51.466;-2.586;2023-03-23T04:24:37;15.15;;;2.35;;
66972;SDS011;53902;51.466;-2.586;2023-03-23T04:47:23;11.38;;;1.52;;
66972;SDS011;53902;51.466;-2.586;2023-03-23T04:49:50;12.98;;;1.63;;
66972;SDS011;53902;51.466;-2.586;2023-03-23T04:55:13;10.30;;;1.60;;
66972;SDS011;53902;51.466;-2.586;2023-03-23T04:57:42;19.80;;;2.85;;
66972;SDS011;53902;51.466;-2.586;2023-03-23T05:08:10;15.90;;;2.20;;
66972;SDS011;53902;51.466;-2.586;2023-03-23T05:10:48;13.70;;;1.80;;
66972;SDS011;53902;51.466;-2.586;2023-03-23T05:13:34;16.25;;;2.63;;
66972;SDS011;53902;51.466;-2.586;2023-03-23T05:19:06;15.88;;;1.85;;
66972;SDS011;53902;51.466;-2.586;2023-03-23T05:21:52;13.85;;;2.00;;
66972;SDS011;53902;51.466;-2.586;2023-03-23T05:24:34;13.98;;;2.65;;
66972;SDS011;53902;51.466;-2.586;2023-03-23T05:27:11;22.73;;;3.13;;
66972;SDS011;53902;51.466;-2.586;2023-03-23T05:42:11;23.70;;;2.42;;
66972;SDS011;53902;51.466;-2.586;2023-03-23T05:45:09;22.80;;;2.35;;
66972;SDS011;53902;51.466;-2.586;2023-03-23T05:47:44;21.75;;;2.83;;
66972;SDS011;53902;51.466;-2.586;2023-03-23T05:52:55;20.23;;;1.98;;
66972;SDS011;53902;51.466;-2.586;2023-03-23T05:55:40;15.02;;;2.00;;
66972;SDS011;53902;51.466;-2.586;2023-03-23T06:04:25;24.92;;;2.45;;
66972;SDS011;53902;51.466;-2.586;2023-03-23T06:07:10;22.23;;;2.23;;
66972;SDS011;53902;51.466;-2.586;2023-03-23T06:10:00;19.02;;;2.65;;
66972;SDS011;53902;51.466;-2.586;2023-03-23T06:12:40;16.75;;;1.90;;
66972;SDS011;53902;51.466;-2.586;2023-03-23T06:15:16;19.75;;;2.35;;
66972;SDS011;53902;51.466;-2.586;2023-03-23T06:18:24;20.77;;;3.30;;
66972;SDS011;53902;51.466;-2.586;2023-03-23T06:20:58;24.10;;;3.35;;
66972;SDS011;53902;51.466;-2.586;2023-03-23T06:23:25;26.13;;;3.95;;
66972;SDS011;53902;51.466;-2.586;2023-03-23T06:25:56;21.20;;;2.97;;
66972;SDS011;53902;51.466;-2.586;2023-03-23T06:34:39;23.15;;;2.55;;
66972;SDS011;53902;51.466;-2.586;2023-03-23T06:37:38;26.80;;;2.50;;
66972;SDS011;53902;51.466;-2.586;2023-03-23T06:46:42;30.88;;;2.80;;
66972;SDS011;53902;51.466;-2.586;2023-03-23T06:50:03;31.73;;;4.20;;
66972;SDS011;53902;51.466;-2.586;2023-03-23T06:58:48;29.17;;;2.88;;
66972;SDS011;53902;51.466;-2.586;2023-03-23T07:01:46;23.20;;;2.97;;
66972;SDS011;53902;51.466;-2.586;2023-03-23T07:04:32;32.30;;;3.42;;
66972;SDS011;53902;51.466;-2.586;2023-03-23T07:07:22;31.23;;;2.85;;
66972;SDS011;53902;51.466;-2.586;2023-03-23T07:16:08;21.42;;;2.60;;
66972;SDS011;53902;51.466;-2.586;2023-03-23T07:18:43;28.73;;;2.95;;
66972;SDS011;53902;51.466;-2.586;2023-03-23T07:21:24;20.98;;;3.03;;
66972;SDS011;53902;51.466;-2.586;2023-03-23T07:24:17;19.83;;;2.55;;
66972;SDS011;53902;51.466;-2.586;2023-03-23T07:27:02;19.15;;;2.45;;
66972;SDS011;53902;51.466;-2.586;2023-03-23T07:29:38;17.65;;;2.80;;
66972;SDS011;53902;51.466;-2.586;2023-03-23T07:32:11;21.83;;;2.65;;
66972;SDS011;53902;51.466;-2.586;2023-03-23T07:34:40;19.02;;;3.20;;
66972;SDS011;53902;51.466;-2.586;2023-03-23T07:37:12;15.05;;;2.10;;
66972;SDS011;53902;51.466;-2.586;2023-03-23T07:39:41;20.23;;;2.90;;
66972;SDS011;53902;51.466;-2.586;2023-03-23T07:42:07;18.35;;;2.45;;
66972;SDS011;53902;51.466;-2.586;2023-03-23T07:44:40;16.50;;;2.22;;
66972;SDS011;53902;51.466;-2.586;2023-03-23T07:47:09;17.98;;;2.85;;
66972;SDS011;53902;51.466;-2.586;2023-03-23T07:49:47;20.40;;;3.10;;
66972;SDS011;53902;51.466;-2.586;2023-03-23T07:52:12;23.30;;;2.92;;
66972;SDS011;53902;51.466;-2.586;2023-03-23T07:54:41;17.63;;;2.65;;
66972;SDS011;53902;51.466;-2.586;2023-03-23T07:57:06;10.57;;;2.13;;
66972;SDS011;53902;51.466;-2.586;2023-03-23T07:59:35;18.98;;;2.50;;
66972;SDS011;53902;51.466;-2.586;2023-03-23T08:02:01;16.38;;;2.42;;
66972;SDS011;53902;51.466;-2.586;2023-03-23T08:04:32;23.33;;;3.58;;
66972;SDS011;53902;51.466;-2.586;2023-03-23T08:07:02;21.25;;;3.05;;
66972;SDS011;53902;51.466;-2.586;2023-03-23T08:09:33;28.83;;;3.63;;
66972;SDS011;53902;51.466;-2.586;2023-03-23T08:12:01;19.17;;;2.67;;
66972;SDS011;53902;51.466;-2.586;2023-03-23T08:14:38;25.88;;;3.33;;
66972;SDS011;53902;51.466;-2.586;2023-03-23T08:17:08;25.77;;;2.63;;
66972;SDS011;53902;51.466;-2.586;2023-03-23T08:19:39;16.08;;;2.35;;
66972;SDS011;53902;51.466;-2.586;2023-03-23T08:22:05;18.35;;;2.20;;
66972;SDS011;53902;51.466;-2.586;2023-03-23T08:24:31;18.50;;;3.05;;
66972;SDS011;53902;51.466;-2.586;2023-03-23T08:27:03;24.65;;;3.40;;
66972;SDS011;53902;51.466;-2.586;2023-03-23T08:29:35;19.60;;;2.38;;
66972;SDS011;53902;51.466;-2.586;2023-03-23T08:32:00;15.30;;;2.53;;
66972;SDS011;53902;51.466;-2.586;2023-03-23T08:34:31;18.80;;;2.72;;
66972;SDS011;53902;51.466;-2.586;2023-03-23T08:36:59;20.77;;;2.22;;
66972;SDS011;53902;51.466;-2.586;2023-03-23T08:39:28;16.45;;;2.75;;
66972;SDS011;53902;51.466;-2.586;2023-03-23T08:41:56;22.50;;;2.92;;
66972;SDS011;53902;51.466;-2.586;2023-03-23T08:44:22;18.75;;;2.72;;
66972;SDS011;53902;51.466;-2.586;2023-03-23T08:46:57;24.05;;;2.88;;
66972;SDS011;53902;51.466;-2.586;2023-03-23T08:49:37;21.05;;;2.65;;
66972;SDS011;53902;51.466;-2.586;2023-03-23T08:54:54;29.02;;;2.67;;
66972;SDS011;53902;51.466;-2.586;2023-03-23T08:57:23;21.83;;;2.80;;
66972;SDS011;53902;51.466;-2.586;2023-03-23T08:59:54;26.60;;;2.70;;
66972;SDS011;53902;51.466;-2.586;2023-03-23T09:02:38;27.73;;;3.63;;
66972;SDS011;53902;51.466;-2.586;2023-03-23T09:05:03;14.98;;;2.05;;
66972;SDS011;53902;51.466;-2.586;2023-03-23T09:07:37;23.88;;;3.03;;
66972;SDS011;53902;51.466;-2.586;2023-03-23T09:10:09;23.20;;;2.88;;
66972;SDS011;53902;51.466;-2.586;2023-03-23T09:12:40;23.90;;;2.65;;
66972;SDS011;53902;51.466;-2.586;2023-03-23T09:15:13;21.65;;;2.50;;
66972;SDS011;53902;51.466;-2.586;2023-03-23T09:17:45;19.33;;;2.45;;
66972;SDS011;53902;51.466;-2.586;2023-03-23T09:20:19;25.42;;;2.67;;
66972;SDS011;53902;51.466;-2.586;2023-03-23T09:22:56;31.13;;;2.95;;
66972;SDS011;53902;51.466;-2.586;2023-03-23T09:25:27;23.83;;;2.90;;
66972;SDS011;53902;51.466;-2.586;2023-03-23T09:28:03;17.33;;;2.75;;
66972;SDS011;53902;51.466;-2.586;2023-03-23T09:30:38;17.27;;;2.40;;
66972;SDS011;53902;51.466;-2.586;2023-03-23T09:33:12;22.42;;;2.42;;
66972;SDS011;53902;51.466;-2.586;2023-03-23T09:35:38;19.52;;;2.33;;
66972;SDS011;53902;51.466;-2.586;2023-03-23T09:38:07;21.23;;;2.88;;
66972;SDS011;53902;51.466;-2.586;2023-03-23T09:49:14;16.73;;;2.08;;
66972;SDS011;53902;51.466;-2.586;2023-03-23T09:52:02;15.10;;;2.60;;
66972;SDS011;53902;51.466;-2.586;2023-03-23T09:54:39;16.48;;;2.75;;
66972;SDS011;53902;51.466;-2.586;2023-03-23T09:57:18;13.30;;;2.72;;
66972;SDS011;53902;51.466;-2.586;2023-03-23T09:59:58;17.38;;;2.30;;
66972;SDS011;53902;51.466;-2.586;2023-03-23T10:07:56;11.98;;;1.83;;
66972;SDS011;53902;51.466;-2.586;2023-03-23T10:10:29;17.23;;;2.33;;
66972;SDS011;53902;51.466;-2.586;2023-03-23T10:13:02;15.02;;;2.50;;
66972;SDS011;53902;51.466;-2.586;2023-03-23T10:15:43;18.83;;;2.28;;
66972;SDS011;53902;51.466;-2.586;2023-03-23T10:18:25;12.82;;;2.28;;
66972;SDS011;53902;51.466;-2.586;2023-03-23T10:21:01;13.40;;;2.45;;
66972;SDS011;53902;51.466;-2.586;2023-03-23T10:31:55;16.95;;;2.90;;
66972;SDS011;53902;51.466;-2.586;2023-03-23T10:34:49;16.17;;;2.05;;
66972;SDS011;53902;51.466;-2.586;2023-03-23T10:40:06;12.45;;;2.97;;
66972;SDS011;53902;51.466;-2.586;2023-03-23T10:42:38;18.38;;;2.60;;
66972;SDS011;53902;51.466;-2.586;2023-03-23T10:45:19;14.13;;;2.55;;
66972;SDS011;53902;51.466;-2.586;2023-03-23T10:50:29;16.02;;;2.40;;
66972;SDS011;53902;51.466;-2.586;2023-03-23T10:53:12;23.42;;;3.25;;
66972;SDS011;53902;51.466;-2.586;2023-03-23T10:55:43;21.27;;;3.65;;
66972;SDS011;53902;51.466;-2.586;2023-03-23T10:58:13;17.38;;;3.00;;
66972;SDS011;53902;51.466;-2.586;2023-03-23T11:00:50;21.65;;;2.85;;
66972;SDS011;53902;51.466;-2.586;2023-03-23T11:05:47;18.02;;;2.75;;
66972;SDS011;53902;51.466;-2.586;2023-03-23T11:08:24;16.42;;;2.88;;
66972;SDS011;53902;51.466;-2.586;2023-03-23T11:11:06;16.65;;;2.92;;
66972;SDS011;53902;51.466;-2.586;2023-03-23T11:13:39;21.02;;;2.97;;
66972;SDS011;53902;51.466;-2.586;2023-03-23T11:16:08;18.75;;;2.28;;
66972;SDS011;53902;51.466;-2.586;2023-03-23T11:19:10;12.60;;;2.00;;
66972;SDS011;53902;51.466;-2.586;2023-03-23T11:22:05;14.90;;;2.47;;
66972;SDS011;53902;51.466;-2.586;2023-03-23T11:24:43;16.65;;;2.58;;
66972;SDS011;53902;51.466;-2.586;2023-03-23T11:27:16;18.05;;;2.90;;
66972;SDS011;53902;51.466;-2.586;2023-03-23T11:32:19;14.27;;;2.25;;
66972;SDS011;53902;51.466;-2.586;2023-03-23T11:34:52;17.95;;;2.47;;
66972;SDS011;53902;51.466;-2.586;2023-03-23T11:37:43;17.45;;;2.90;;
66972;SDS011;53902;51.466;-2.586;2023-03-23T11:40:16;15.65;;;2.10;;
66972;SDS011;53902;51.466;-2.586;2023-03-23T11:43:13;17.60;;;2.08;;
66972;SDS011;53902;51.466;-2.586;2023-03-23T11:48:56;9.23;;;1.90;;
66972;SDS011;53902;51.466;-2.586;2023-03-23T11:51:36;10.20;;;1.98;;
66972;SDS011;53902;51.466;-2.586;2023-03-23T11:56:53;16.23;;;2.58;;
66972;SDS011;53902;51.466;-2.586;2023-03-23T11:59:32;17.55;;;2.63;;
66972;SDS011;53902;51.466;-2.586;2023-03-23T12:30:00;14.48;;;2.45;;
66972;SDS011;53902;51.466;-2.586;2023-03-23T12:41:01;19.35;;;2.45;;
66972;SDS011;53902;51.466;-2.586;2023-03-23T12:49:05;17.40;;;2.63;;
66972;SDS011;53902;51.466;-2.586;2023-03-23T12:57:26;18.58;;;3.53;;
66972;SDS011;53902;51.466;-2.586;2023-03-23T13:02:50;20.00;;;3.22;;
66972;SDS011;53902;51.466;-2.586;2023-03-23T13:08:36;17.67;;;2.90;;
66972;SDS011;53902;51.466;-2.586;2023-03-23T13:11:36;18.95;;;2.65;;
66972;SDS011;53902;51.466;-2.586;2023-03-23T13:25:49;21.30;;;3.75;;
66972;SDS011;53902;51.466;-2.586;2023-03-23T13:28:27;22.67;;;3.20;;
66972;SDS011;53902;51.466;-2.586;2023-03-23T13:31:21;20.13;;;3.47;;
66972;SDS011;53902;51.466;-2.586;2023-03-23T13:37:01;23.45;;;3.58;;
66972;SDS011;53902;51.466;-2.586;2023-03-23T13:39:37;19.40;;;4.03;;
66972;SDS011;53902;51.466;-2.586;2023-03-23T13:42:27;22.95;;;3.58;;
66972;SDS011;53902;51.466;-2.586;2023-03-23T13:45:08;24.05;;;3.42;;
66972;SDS011;53902;51.466;-2.586;2023-03-23T13:48:01;30.10;;;4.35;;
66972;SDS011;53902;51.466;-2.586;2023-03-23T13:50:43;17.90;;;3.47;;
66972;SDS011;53902;51.466;-2.586;2023-03-23T13:54:03;23.97;;;4.50;;
66972;SDS011;53902;51.466;-2.586;2023-03-23T13:59:04;29.45;;;4.25;;
66972;SDS011;53902;51.466;-2.586;2023-03-23T14:07:55;29.58;;;4.10;;
66972;SDS011;53902;51.466;-2.586;2023-03-23T14:10:25;32.40;;;3.95;;
66972;SDS011;53902;51.466;-2.586;2023-03-23T14:12:56;28.23;;;4.72;;
66972;SDS011;53902;51.466;-2.586;2023-03-23T14:15:27;21.65;;;3.42;;
66972;SDS011;53902;51.466;-2.586;2023-03-23T14:17:54;19.65;;;3.15;;
66972;SDS011;53902;51.466;-2.586;2023-03-23T14:20:25;30.77;;;4.40;;
66972;SDS011;53902;51.466;-2.586;2023-03-23T14:22:54;31.98;;;4.30;;
66972;SDS011;53902;51.466;-2.586;2023-03-23T14:25:21;24.83;;;3.80;;
66972;SDS011;53902;51.466;-2.586;2023-03-23T14:27:53;32.70;;;4.78;;
66972;SDS011;53902;51.466;-2.586;2023-03-23T14:30:21;30.13;;;4.57;;
66972;SDS011;53902;51.466;-2.586;2023-03-23T14:32:51;28.75;;;4.30;;
66972;SDS011;53902;51.466;-2.586;2023-03-23T14:37:49;19.58;;;3.55;;
66972;SDS011;53902;51.466;-2.586;2023-03-23T14:40:18;19.30;;;2.42;;
66972;SDS011;53902;51.466;-2.586;2023-03-23T14:42:49;14.35;;;3.00;;
66972;SDS011;53902;51.466;-2.586;2023-03-23T14:45:16;16.38;;;3.17;;
66972;SDS011;53902;51.466;-2.586;2023-03-23T14:47:48;18.85;;;3.08;;
66972;SDS011;53902;51.466;-2.586;2023-03-23T14:50:22;25.90;;;3.22;;
66972;SDS011;53902;51.466;-2.586;2023-03-23T14:52:48;18.65;;;3.15;;
66972;SDS011;53902;51.466;-2.586;2023-03-23T14:55:18;19.25;;;2.50;;
66972;SDS011;53902;51.466;-2.586;2023-03-23T14:57:46;18.17;;;2.83;;
66972;SDS011;53902;51.466;-2.586;2023-03-23T15:00:20;17.52;;;2.50;;
66972;SDS011;53902;51.466;-2.586;2023-03-23T15:02:49;20.40;;;3.03;;
66972;SDS011;53902;51.466;-2.586;2023-03-23T15:05:22;19.73;;;2.65;;
66972;SDS011;53902;51.466;-2.586;2023-03-23T15:07:53;19.10;;;2.97;;
66972;SDS011;53902;51.466;-2.586;2023-03-23T15:10:27;21.05;;;3.75;;
66972;SDS011;53902;51.466;-2.586;2023-03-23T15:12:53;20.13;;;3.53;;
66972;SDS011;53902;51.466;-2.586;2023-03-23T15:15:33;15.88;;;2.60;;
66972;SDS011;53902;51.466;-2.586;2023-03-23T15:18:02;15.07;;;2.95;;
66972;SDS011;53902;51.466;-2.586;2023-03-23T15:20:31;17.70;;;4.03;;
66972;SDS011;53902;51.466;-2.586;2023-03-23T15:26:02;14.40;;;2.67;;
66972;SDS011;53902;51.466;-2.586;2023-03-23T15:28:51;17.27;;;2.90;;
66972;SDS011;53902;51.466;-2.586;2023-03-23T15:31:33;19.48;;;3.60;;
66972;SDS011;53902;51.466;-2.586;2023-03-23T15:34:02;18.27;;;2.95;;
66972;SDS011;53902;51.466;-2.586;2023-03-23T15:36:31;13.57;;;2.90;;
66972;SDS011;53902;51.466;-2.586;2023-03-23T15:38:59;19.52;;;3.45;;
66972;SDS011;53902;51.466;-2.586;2023-03-23T15:41:26;14.48;;;2.90;;
66972;SDS011;53902;51.466;-2.586;2023-03-23T15:43:58;19.60;;;2.70;;
66972;SDS011;53902;51.466;-2.586;2023-03-23T15:46:33;16.90;;;3.30;;
66972;SDS011;53902;51.466;-2.586;2023-03-23T15:51:25;18.88;;;3.22;;
66972;SDS011;53902;51.466;-2.586;2023-03-23T15:53:53;11.55;;;2.75;;
66972;SDS011;53902;51.466;-2.586;2023-03-23T15:56:19;15.27;;;3.58;;
66972;SDS011;53902;51.466;-2.586;2023-03-23T15:58:45;21.88;;;3.67;;
66972;SDS011;53902;51.466;-2.586;2023-03-23T16:01:21;22.70;;;4.03;;
66972;SDS011;53902;51.466;-2.586;2023-03-23T16:03:53;21.92;;;3.85;;
66972;SDS011;53902;51.466;-2.586;2023-03-23T16:06:22;20.70;;;3.50;;
66972;SDS011;53902;51.466;-2.586;2023-03-23T16:08:54;16.45;;;2.83;;
66972;SDS011;53902;51.466;-2.586;2023-03-23T16:11:26;17.83;;;3.20;;
66972;SDS011;53902;51.466;-2.586;2023-03-23T16:13:53;14.68;;;2.80;;
66972;SDS011;53902;51.466;-2.586;2023-03-23T16:16:24;17.73;;;3.97;;
66972;SDS011;53902;51.466;-2.586;2023-03-23T16:18:55;14.13;;;2.85;;
66972;SDS011;53902;51.466;-2.586;2023-03-23T16:21:21;18.50;;;3.45;;
66972;SDS011;53902;51.466;-2.586;2023-03-23T16:23:51;20.85;;;3.83;;
66972;SDS011;53902;51.466;-2.586;2023-03-23T16:26:17;14.05;;;2.95;;
66972;SDS011;53902;51.466;-2.586;2023-03-23T16:28:46;12.43;;;2.85;;
66972;SDS011;53902;51.466;-2.586;2023-03-23T16:31:16;16.17;;;3.10;;
66972;SDS011;53902;51.466;-2.586;2023-03-23T16:33:41;16.92;;;2.95;;
66972;SDS011;53902;51.466;-2.586;2023-03-23T16:36:09;19.27;;;3.05;;
66972;SDS011;53902;51.466;-2.586;2023-03-23T16:38:40;17.55;;;3.10;;
66972;SDS011;53902;51.466;-2.586;2023-03-23T16:41:06;11.95;;;3.08;;
66972;SDS011;53902;51.466;-2.586;2023-03-23T16:43:35;18.95;;;4.00;;
66972;SDS011;53902;51.466;-2.586;2023-03-23T16:46:03;11.35;;;2.67;;
66972;SDS011;53902;51.466;-2.586;2023-03-23T16:48:31;19.02;;;2.92;;
66972;SDS011;53902;51.466;-2.586;2023-03-23T16:50:59;13.52;;;2.00;;
66972;SDS011;53902;51.466;-2.586;2023-03-23T16:53:27;10.10;;;2.00;;
66972;SDS011;53902;51.466;-2.586;2023-03-23T16:55:55;12.70;;;1.75;;
66972;SDS011;53902;51.466;-2.586;2023-03-23T16:58:23;8.60;;;1.25;;
66972;SDS011;53902;51.466;-2.586;2023-03-23T17:00:49;9.45;;;2.08;;
66972;SDS011;53902;51.466;-2.586;2023-03-23T17:03:25;11.65;;;1.95;;
66972;SDS011;53902;51.466;-2.586;2023-03-23T17:05:58;8.23;;;2.13;;
66972;SDS011;53902;51.466;-2.586;2023-03-23T17:08:26;7.80;;;1.73;;
66972;SDS011;53902;51.466;-2.586;2023-03-23T17:10:52;8.95;;;1.50;;
66972;SDS011;53902;51.466;-2.586;2023-03-23T17:13:18;5.80;;;1.20;;
66972;SDS011;53902;51.466;-2.586;2023-03-23T17:15:45;10.02;;;2.90;;
66972;SDS011;53902;51.466;-2.586;2023-03-23T17:18:11;9.43;;;2.63;;
66972;SDS011;53902;51.466;-2.586;2023-03-23T17:20:41;13.63;;;4.43;;
66972;SDS011;53902;51.466;-2.586;2023-03-23T17:23:10;14.95;;;4.95;;
66972;SDS011;53902;51.466;-2.586;2023-03-23T17:25:35;11.85;;;3.72;;
66972;SDS011;53902;51.466;-2.586;2023-03-23T17:28:09;10.63;;;2.45;;
66972;SDS011;53902;51.466;-2.586;2023-03-23T17:30:35;6.63;;;1.80;;
66972;SDS011;53902;51.466;-2.586;2023-03-23T17:33:04;6.95;;;1.67;;
66972;SDS011;53902;51.466;-2.586;2023-03-23T17:35:29;5.30;;;1.38;;
66972;SDS011;53902;51.466;-2.586;2023-03-23T17:37:55;7.57;;;1.65;;
66972;SDS011;53902;51.466;-2.586;2023-03-23T17:40:21;7.30;;;1.85;;
66972;SDS011;53902;51.466;-2.586;2023-03-23T17:42:46;5.18;;;1.50;;
66972;SDS011;53902;51.466;-2.586;2023-03-23T17:45:11;9.02;;;2.42;;
66972;SDS011;53902;51.466;-2.586;2023-03-23T17:47:37;5.90;;;2.40;;
66972;SDS011;53902;51.466;-2.586;2023-03-23T17:50:04;15.90;;;2.38;;
66972;SDS011;53902;51.466;-2.586;2023-03-23T17:52:30;4.30;;;2.17;;
66972;SDS011;53902;51.466;-2.586;2023-03-23T17:54:56;5.85;;;2.00;;
66972;SDS011;53902;51.466;-2.586;2023-03-23T17:57:29;7.07;;;2.45;;
66972;SDS011;53902;51.466;-2.586;2023-03-23T17:59:58;6.57;;;2.20;;
66972;SDS011;53902;51.466;-2.586;2023-03-23T18:02:26;5.60;;;2.08;;
66972;SDS011;53902;51.466;-2.586;2023-03-23T18:04:55;5.20;;;2.42;;
66972;SDS011;53902;51.466;-2.586;2023-03-23T18:07:21;8.98;;;2.25;;
66972;SDS011;53902;51.466;-2.586;2023-03-23T18:10:03;5.25;;;2.00;;
66972;SDS011;53902;51.466;-2.586;2023-03-23T18:12:35;7.57;;;1.70;;
66972;SDS011;53902;51.466;-2.586;2023-03-23T18:15:06;7.18;;;2.03;;
66972;SDS011;53902;51.466;-2.586;2023-03-23T18:17:34;3.88;;;1.60;;
66972;SDS011;53902;51.466;-2.586;2023-03-23T18:20:00;3.20;;;1.67;;
66972;SDS011;53902;51.466;-2.586;2023-03-23T18:22:28;6.85;;;1.70;;
66972;SDS011;53902;51.466;-2.586;2023-03-23T18:24:53;3.92;;;1.50;;
66972;SDS011;53902;51.466;-2.586;2023-03-23T18:27:19;10.82;;;1.80;;
66972;SDS011;53902;51.466;-2.586;2023-03-23T18:29:47;6.38;;;1.80;;
66972;SDS011;53902;51.466;-2.586;2023-03-23T18:32:13;12.40;;;1.70;;
66972;SDS011;53902;51.466;-2.586;2023-03-23T18:34:41;5.60;;;1.65;;
66972;SDS011;53902;51.466;-2.586;2023-03-23T18:37:07;6.05;;;1.73;;
66972;SDS011;53902;51.466;-2.586;2023-03-23T18:39:35;5.13;;;1.90;;
66972;SDS011;53902;51.466;-2.586;2023-03-23T18:42:03;5.30;;;2.25;;
66972;SDS011;53902;51.466;-2.586;2023-03-23T18:44:32;10.93;;;4.13;;
66972;SDS011;53902;51.466;-2.586;2023-03-23T18:46:58;9.57;;;2.80;;
66972;SDS011;53902;51.466;-2.586;2023-03-23T18:49:23;4.05;;;1.90;;
66972;SDS011;53902;51.466;-2.586;2023-03-23T18:51:56;3.67;;;1.70;;
66972;SDS011;53902;51.466;-2.586;2023-03-23T18:54:25;6.82;;;2.08;;
66972;SDS011;53902;51.466;-2.586;2023-03-23T18:56:56;7.95;;;1.90;;
66972;SDS011;53902;51.466;-2.586;2023-03-23T18:59:21;3.03;;;2.00;;
66972;SDS011;53902;51.466;-2.586;2023-03-23T19:01:48;6.30;;;1.85;;
66972;SDS011;53902;51.466;-2.586;2023-03-23T19:04:16;6.70;;;1.92;;
66972;SDS011;53902;51.466;-2.586;2023-03-23T19:06:46;7.72;;;2.45;;
66972;SDS011;53902;51.466;-2.586;2023-03-23T19:09:15;6.10;;;3.13;;
66972;SDS011;53902;51.466;-2.586;2023-03-23T19:11:42;10.70;;;2.47;;
66972;SDS011;53902;51.466;-2.586;2023-03-23T19:14:08;8.50;;;3.28;;
66972;SDS011;53902;51.466;-2.586;2023-03-23T19:16:36;11.10;;;2.67;;
66972;SDS011;53902;51.466;-2.586;2023-03-23T19:19:05;4.57;;;2.80;;
66972;SDS011;53902;51.466;-2.586;2023-03-23T19:21:32;9.00;;;2.90;;
66972;SDS011;53902;51.466;-2.586;2023-03-23T19:23:57;5.82;;;2.50;;
66972;SDS011;53902;51.466;-2.586;2023-03-23T19:26:31;7.45;;;3.05;;
66972;SDS011;53902;51.466;-2.586;2023-03-23T19:28:58;6.25;;;3.35;;
66972;SDS011;53902;51.466;-2.586;2023-03-23T19:31:26;5.97;;;3.00;;
66972;SDS011;53902;51.466;-2.586;2023-03-23T19:33:52;7.03;;;2.55;;
66972;SDS011;53902;51.466;-2.586;2023-03-23T19:36:20;7.53;;;2.47;;
66972;SDS011;53902;51.466;-2.586;2023-03-23T19:38:49;11.88;;;3.38;;
66972;SDS011;53902;51.466;-2.586;2023-03-23T19:41:16;6.18;;;2.55;;
66972;SDS011;53902;51.466;-2.586;2023-03-23T19:43:44;7.38;;;2.55;;
66972;SDS011;53902;51.466;-2.586;2023-03-23T19:46:17;6.63;;;2.50;;
66972;SDS011;53902;51.466;-2.586;2023-03-23T19:48:42;6.78;;;2.90;;
66972;SDS011;53902;51.466;-2.586;2023-03-23T19:51:08;6.13;;;2.67;;
66972;SDS011;53902;51.466;-2.586;2023-03-23T19:53:35;6.18;;;2.38;;
66972;SDS011;53902;51.466;-2.586;2023-03-23T19:56:01;8.32;;;2.80;;
66972;SDS011;53902;51.466;-2.586;2023-03-23T19:58:29;7.05;;;3.13;;
66972;SDS011;53902;51.466;-2.586;2023-03-23T20:00:58;8.45;;;3.00;;
66972;SDS011;53902;51.466;-2.586;2023-03-23T20:03:24;9.57;;;3.30;;
66972;SDS011;53902;51.466;-2.586;2023-03-23T20:05:52;5.60;;;2.15;;
66972;SDS011;53902;51.466;-2.586;2023-03-23T20:08:31;4.97;;;1.90;;
66972;SDS011;53902;51.466;-2.586;2023-03-23T20:11:00;5.30;;;1.95;;
66972;SDS011;53902;51.466;-2.586;2023-03-23T20:13:46;8.65;;;2.25;;
66972;SDS011;53902;51.466;-2.586;2023-03-23T20:16:15;2.78;;;1.80;;
66972;SDS011;53902;51.466;-2.586;2023-03-23T20:18:52;5.32;;;2.08;;
66972;SDS011;53902;51.466;-2.586;2023-03-23T20:21:18;5.03;;;2.10;;
66972;SDS011;53902;51.466;-2.586;2023-03-23T20:23:46;9.88;;;2.00;;
66972;SDS011;53902;51.466;-2.586;2023-03-23T20:26:16;11.30;;;2.13;;
66972;SDS011;53902;51.466;-2.586;2023-03-23T20:28:44;9.57;;;2.20;;
66972;SDS011;53902;51.466;-2.586;2023-03-23T20:31:11;5.35;;;2.00;;
66972;SDS011;53902;51.466;-2.586;2023-03-23T20:33:46;3.70;;;1.80;;
66972;SDS011;53902;51.466;-2.586;2023-03-23T20:36:12;6.72;;;1.90;;
66972;SDS011;53902;51.466;-2.586;2023-03-23T20:38:41;4.82;;;1.50;;
66972;SDS011;53902;51.466;-2.586;2023-03-23T20:41:10;5.82;;;1.83;;
66972;SDS011;53902;51.466;-2.586;2023-03-23T20:43:37;8.43;;;2.03;;
66972;SDS011;53902;51.466;-2.586;2023-03-23T20:46:04;8.35;;;2.22;;
66972;SDS011;53902;51.466;-2.586;2023-03-23T20:48:40;8.57;;;2.05;;
66972;SDS011;53902;51.466;-2.586;2023-03-23T20:51:09;5.35;;;1.58;;
66972;SDS011;53902;51.466;-2.586;2023-03-23T20:53:45;5.53;;;1.90;;
66972;SDS011;53902;51.466;-2.586;2023-03-23T20:56:10;5.95;;;2.20;;
66972;SDS011;53902;51.466;-2.586;2023-03-23T20:58:46;11.20;;;2.55;;
66972;SDS011;53902;51.466;-2.586;2023-03-23T21:01:14;5.50;;;1.98;;
66972;SDS011;53902;51.466;-2.586;2023-03-23T21:03:40;5.93;;;1.80;;
66972;SDS011;53902;51.466;-2.586;2023-03-23T21:06:06;6.50;;;1.95;;
66972;SDS011;53902;51.466;-2.586;2023-03-23T21:08:37;12.10;;;2.00;;
66972;SDS011;53902;51.466;-2.586;2023-03-23T21:11:05;13.30;;;2.25;;
66972;SDS011;53902;51.466;-2.586;2023-03-23T21:13:32;6.97;;;2.00;;
66972;SDS011;53902;51.466;-2.586;2023-03-23T21:16:01;7.32;;;2.08;;
66972;SDS011;53902;51.466;-2.586;2023-03-23T21:18:32;6.63;;;2.00;;
66972;SDS011;53902;51.466;-2.586;2023-03-23T21:21:00;9.65;;;2.00;;
66972;SDS011;53902;51.466;-2.586;2023-03-23T21:23:26;5.40;;;1.83;;
66972;SDS011;53902;51.466;-2.586;2023-03-23T21:26:02;7.28;;;1.90;;
66972;SDS011;53902;51.466;-2.586;2023-03-23T21:28:32;9.60;;;2.33;;
66972;SDS011;53902;51.466;-2.586;2023-03-23T21:31:01;4.80;;;2.00;;
66972;SDS011;53902;51.466;-2.586;2023-03-23T21:33:29;7.88;;;1.63;;
66972;SDS011;53902;51.466;-2.586;2023-03-23T21:35:57;0.25;;;0.10;;
66972;SDS011;53902;51.466;-2.586;2023-03-23T21:38:24;41.33;;;1.75;;